Terminal Aerodrome Forecast
Issued by NWS

Home | Current Version | Previous Version | Graphics & Text | Print | Product List | Glossary On
Versions: 1 2 3 4 5 6 7 8 9 10 11 12 13 14 15 16 17 18 19 20
000
FTUS41 KCLE 250300 AAA
TAFFDY
TAF AMD
KFDY 250306Z 2503/2524 24012G18KT P6SM BKN025 OVC040
      TEMPO 2504/2508 3SM -SHSN SCT015 OVC035
     FM251000 30009KT P6SM BKN030
     FM251400 32005KT P6SM BKN250
     FM252300 05005KT P6SM BKN100 OVC200=

USA.gov is the U.S. government's official web portal to all federal, state and local government web resources and services.